createdAt,value
2023-04-02T00:08:55.070Z,8.40
2023-04-02T00:19:02.668Z,8.30
2023-04-02T00:29:06.388Z,8.40
2023-04-02T00:39:19.969Z,8.40
2023-04-02T00:49:38.853Z,8.50
2023-04-02T01:00:00.624Z,8.40
2023-04-02T01:10:48.930Z,8.40
2023-04-02T01:21:11.388Z,8.30
2023-04-02T01:31:16.471Z,8.20
2023-04-02T01:41:30.953Z,8.30
2023-04-02T01:51:34.787Z,8.30
2023-04-02T02:02:01.508Z,8.50
2023-04-02T02:12:05.007Z,8.50
2023-04-02T02:22:33.708Z,8.50
2023-04-02T02:32:46.760Z,8.50
2023-04-02T02:42:55.935Z,8.50
2023-04-02T02:53:06.070Z,8.40
2023-04-02T03:03:19.257Z,8.40
2023-04-02T03:13:39.730Z,8.40
2023-04-02T03:24:01.158Z,8.30
2023-04-02T03:34:33.526Z,8.20
2023-04-02T03:45:05.052Z,8.10
2023-04-02T03:55:17.264Z,8.20
2023-04-02T04:05:30.609Z,8.00
2023-04-02T04:15:41.082Z,8.00
2023-04-02T04:25:43.930Z,8.10
2023-04-02T04:35:59.744Z,8.10
2023-04-02T04:46:29.331Z,8.10
2023-04-02T04:56:53.740Z,8.10
2023-04-02T05:07:13.874Z,8.10
2023-04-02T05:17:33.704Z,7.80
2023-04-02T05:27:56.848Z,7.50
2023-04-02T05:50:06.903Z,6.50
2023-04-02T06:00:20.520Z,6.20
2023-04-02T06:10:31.364Z,5.60
2023-04-02T06:20:34.961Z,5.30
2023-04-02T06:30:43.661Z,5.20
2023-04-02T06:41:02.130Z,5.20
2023-04-02T06:51:21.824Z,5.00
2023-04-02T07:01:49.076Z,4.80
2023-04-02T07:11:51.261Z,4.70
2023-04-02T07:21:53.953Z,4.70
2023-04-02T07:31:57.841Z,4.60
2023-04-02T07:42:01.632Z,4.30
2023-04-02T07:52:05.115Z,4.00
2023-04-02T08:02:07.602Z,3.80
2023-04-02T08:12:13.624Z,3.60
2023-04-02T08:22:15.569Z,3.60
2023-04-02T08:32:17.758Z,3.60
2023-04-02T08:42:26.987Z,3.40
2023-04-02T08:52:32.371Z,3.50
2023-04-02T09:02:40.283Z,3.70
2023-04-02T09:12:46.146Z,3.60
2023-04-02T09:22:50.197Z,3.60
2023-04-02T09:32:54.409Z,3.50
2023-04-02T09:43:25.636Z,3.30
2023-04-02T09:53:42.529Z,3.40
2023-04-02T10:03:46.606Z,3.50
2023-04-02T10:13:56.897Z,3.50
2023-04-02T10:23:58.889Z,3.60
2023-04-02T10:34:09.920Z,3.80
2023-04-02T10:44:34.093Z,4.20
2023-04-02T10:54:48.103Z,4.50
2023-04-02T11:04:52.065Z,4.00
2023-04-02T11:14:56.333Z,4.00
2023-04-02T11:25:15.961Z,4.30
2023-04-02T11:35:24.164Z,4.40
2023-04-02T11:45:52.770Z,4.60
2023-04-02T11:55:58.205Z,4.60
2023-04-02T12:06:17.314Z,4.30
2023-04-02T12:16:19.727Z,4.30
2023-04-02T12:26:37.342Z,4.30
2023-04-02T12:36:39.317Z,4.50
2023-04-02T12:46:41.650Z,4.40
2023-04-02T12:56:44.311Z,4.50
2023-04-02T13:06:51.700Z,4.40
2023-04-02T13:16:54.440Z,4.50
2023-04-02T13:27:01.402Z,4.50
2023-04-02T13:37:03.330Z,4.60
2023-04-02T13:47:05.236Z,4.70
2023-04-02T13:57:07.229Z,4.90
2023-04-02T14:07:38.209Z,4.60
2023-04-02T14:18:13.400Z,4.10
2023-04-02T14:28:42.089Z,4.30
2023-04-02T14:39:05.838Z,4.10
2023-04-02T14:49:13.607Z,4.20
2023-04-02T14:59:41.569Z,4.10
2023-04-02T15:09:51.096Z,3.80
2023-04-02T15:20:02.224Z,3.90
2023-04-02T15:30:15.583Z,3.90
2023-04-02T15:40:30.047Z,3.80
2023-04-02T15:50:50.015Z,3.80
2023-04-02T16:01:11.455Z,3.80
2023-04-02T16:11:15.560Z,3.80
2023-04-02T16:21:22.329Z,3.70
2023-04-02T16:31:51.837Z,3.70
2023-04-02T16:42:29.081Z,3.60
2023-04-02T16:52:55.161Z,3.30
2023-04-02T17:03:26.285Z,3.20
2023-04-02T17:13:42.088Z,3.30
2023-04-02T17:33:57.146Z,3.40
2023-04-02T17:44:27.245Z,3.30
2023-04-02T17:54:38.852Z,3.30
2023-04-02T18:04:44.427Z,3.20
2023-04-02T18:15:24.175Z,3.20
2023-04-02T18:25:51.296Z,3.20
2023-04-02T18:36:23.237Z,3.20
2023-04-02T18:46:56.462Z,3.20
2023-04-02T18:56:59.376Z,3.10
2023-04-02T19:07:11.939Z,3.20
2023-04-02T19:17:41.922Z,3.10
2023-04-02T19:28:05.369Z,3.20
2023-04-02T19:38:22.088Z,3.10
2023-04-02T19:48:34.984Z,3.10
2023-04-02T19:58:36.900Z,3.10
2023-04-02T20:08:38.874Z,3.00
2023-04-02T20:18:40.677Z,3.00
2023-04-02T20:28:42.509Z,3.00
2023-04-02T20:38:44.538Z,3.00
2023-04-02T20:48:47.225Z,3.00
2023-04-02T20:58:50.131Z,3.00
2023-04-02T21:08:52.635Z,3.00
2023-04-02T21:18:55.733Z,3.00
2023-04-02T21:28:57.501Z,3.00
2023-04-02T21:39:16.100Z,2.90
2023-04-02T21:49:19.865Z,2.90
2023-04-02T21:59:21.921Z,2.90
2023-04-02T22:09:25.236Z,2.80
2023-04-02T22:19:27.681Z,2.80
2023-04-02T22:29:29.657Z,2.80
2023-04-02T22:39:31.883Z,2.70
2023-04-02T22:49:33.790Z,2.60
2023-04-02T22:59:36.277Z,2.60
2023-04-02T23:09:38.062Z,2.60
2023-04-02T23:19:39.893Z,2.50
2023-04-02T23:29:41.779Z,2.50
2023-04-02T23:39:43.954Z,2.40
2023-04-02T23:49:45.766Z,2.40
2023-04-02T23:59:47.756Z,2.30
